Time;durP1;ratioP1;P1;durP2;ratioP2;P2;SDS_P1;SDS_P2;PMS_P1;PMS_P2;Temp;Humidity;BMP_temperature;BMP_pressure;BME280_temperature;BME280_humidity;BME280_pressure;Samples;Min_cycle;Max_cycle;Signal;HPM_P1;HPM_P2
2023/08/17 00:01:24;;;;;;;12.77;10.32;;;24.50;75.40;;;;;;4977009;28;20030;-55
2023/08/17 00:03:50;;;;;;;11.43;10.23;;;24.50;75.30;;;;;;4978295;28;20550;-51
2023/08/17 00:06:15;;;;;;;11.20;10.10;;;24.50;75.30;;;;;;4978385;28;20631;-50
2023/08/17 00:08:42;;;;;;;11.32;10.32;;;24.60;75.10;;;;;;4974506;28;20149;-50
2023/08/17 00:11:07;;;;;;;10.23;9.30;;;24.60;75.10;;;;;;4974440;28;20034;-54
2023/08/17 00:13:33;;;;;;;10.20;9.25;;;24.50;75.10;;;;;;4972568;28;20053;-52
2023/08/17 00:15:58;;;;;;;10.88;9.88;;;24.60;75.10;;;;;;4972675;28;20038;-54
2023/08/17 00:18:24;;;;;;;11.80;10.57;;;24.60;75.10;;;;;;4978838;28;20104;-52
2023/08/17 00:20:49;;;;;;;12.05;10.85;;;24.60;75.20;;;;;;4973272;28;20045;-54
2023/08/17 00:23:15;;;;;;;13.85;10.52;;;24.50;75.20;;;;;;4975974;28;20057;-55
2023/08/17 00:25:40;;;;;;;12.18;10.98;;;24.50;74.90;;;;;;4976410;28;20227;-53
2023/08/17 00:28:06;;;;;;;11.32;10.30;;;24.50;75.00;;;;;;4977457;28;20034;-56
2023/08/17 00:30:35;;;;;;;12.50;11.32;;;24.50;75.30;;;;;;4977203;28;20209;-54
2023/08/17 00:33:01;;;;;;;12.35;10.13;;;24.40;75.20;;;;;;4978645;28;20038;-52
2023/08/17 00:35:27;;;;;;;11.23;10.23;;;24.40;75.20;;;;;;4974674;28;20030;-54
2023/08/17 00:37:53;;;;;;;13.77;10.90;;;24.40;75.20;;;;;;4962124;28;20108;-51
2023/08/17 00:40:18;;;;;;;11.98;10.77;;;24.40;75.20;;;;;;4975908;28;20428;-55
2023/08/17 00:42:44;;;;;;;11.57;10.27;;;24.40;75.20;;;;;;4970612;28;20042;-52
2023/08/17 00:45:09;;;;;;;11.98;10.82;;;24.40;75.20;;;;;;4974520;28;20030;-53
2023/08/17 00:47:35;;;;;;;10.38;9.45;;;24.30;75.20;;;;;;4973370;28;20042;-51
2023/08/17 00:50:02;;;;;;;11.95;10.45;;;24.30;75.30;;;;;;4972323;28;20399;-51
2023/08/17 00:52:28;;;;;;;11.25;10.15;;;24.30;75.30;;;;;;4972077;28;20057;-51
2023/08/17 00:54:55;;;;;;;11.05;9.95;;;24.30;75.20;;;;;;4976740;28;20548;-51
2023/08/17 00:57:21;;;;;;;10.63;9.73;;;24.30;75.30;;;;;;4975621;28;20057;-53
2023/08/17 00:59:47;;;;;;;10.65;9.57;;;24.40;75.40;;;;;;4977821;28;20030;-53
2023/08/17 01:02:12;;;;;;;11.82;10.63;;;24.40;75.20;;;;;;4976197;28;20031;-51
2023/08/17 01:04:38;;;;;;;11.20;10.20;;;24.40;75.10;;;;;;4971014;28;20038;-51
2023/08/17 01:07:03;;;;;;;12.15;10.95;;;24.40;75.20;;;;;;4974937;28;20034;-52
2023/08/17 01:09:29;;;;;;;10.93;9.80;;;24.40;75.20;;;;;;5006517;23;20068;-65
2023/08/17 01:12:13;;;;;;;11.90;10.73;;;24.40;75.20;;;;;;5012917;28;20231;-67
2023/08/17 01:15:00;;;;;;;10.57;9.35;;;24.40;75.10;;;;;;5008668;28;20433;-64
2023/08/17 01:17:50;;;;;;;10.75;9.23;;;24.50;75.10;;;;;;5008154;28;20125;-67
2023/08/17 01:20:17;;;;;;;10.13;9.00;;;24.50;75.00;;;;;;5009363;28;20033;-67
2023/08/17 01:22:48;;;;;;;10.13;9.23;;;24.50;75.00;;;;;;5009954;28;20029;-66
2023/08/17 01:25:13;;;;;;;11.00;9.38;;;24.50;75.40;;;;;;5006719;28;20117;-62
2023/08/17 01:27:45;;;;;;;10.50;9.45;;;24.50;74.70;;;;;;5009052;28;20121;-67
2023/08/17 01:30:16;;;;;;;10.48;9.52;;;24.50;74.90;;;;;;5007571;28;20060;-63
2023/08/17 01:32:58;;;;;;;11.07;9.98;;;24.50;74.70;;;;;;5007979;28;20034;-66
2023/08/17 01:35:51;;;;;;;12.02;10.30;;;24.50;74.70;;;;;;5011266;28;20100;-67
2023/08/17 01:38:20;;;;;;;10.13;9.15;;;24.50;74.60;;;;;;5012649;28;20394;-67
2023/08/17 01:40:50;;;;;;;9.45;8.60;;;24.50;74.70;;;;;;5013737;28;20036;-67
2023/08/17 01:43:16;;;;;;;9.98;9.02;;;24.50;74.90;;;;;;5012303;28;20484;-66
2023/08/17 01:45:42;;;;;;;9.85;8.95;;;24.50;74.90;;;;;;5008413;28;20052;-60
2023/08/17 01:48:08;;;;;;;9.95;9.05;;;24.50;75.00;;;;;;5013929;28;20033;-61
2023/08/17 01:50:33;;;;;;;9.20;8.30;;;24.50;75.00;;;;;;5005843;28;20033;-69
2023/08/17 01:52:59;;;;;;;9.25;8.35;;;24.50;75.00;;;;;;5012718;28;20061;-67
2023/08/17 01:55:24;;;;;;;9.88;8.98;;;24.50;75.00;;;;;;5008377;28;20403;-62
2023/08/17 01:57:50;;;;;;;9.88;8.88;;;24.50;75.00;;;;;;5005477;28;20065;-61
2023/08/17 02:00:16;;;;;;;9.93;8.95;;;24.50;74.80;;;;;;5007478;28;20045;-66
2023/08/17 02:02:41;;;;;;;10.85;9.18;;;24.50;74.80;;;;;;5007884;28;20037;-67
2023/08/17 02:05:08;;;;;;;10.05;8.70;;;24.50;74.80;;;;;;5009375;28;20038;-66
2023/08/17 02:07:33;;;;;;;10.57;9.57;;;24.50;74.90;;;;;;5011309;28;20041;-67
2023/08/17 02:09:59;;;;;;;9.80;8.90;;;24.40;74.70;;;;;;5008355;28;20091;-66
2023/08/17 02:12:25;;;;;;;9.48;8.68;;;24.40;74.70;;;;;;5010802;28;20057;-65
2023/08/17 02:14:50;;;;;;;10.85;9.80;;;24.50;74.80;;;;;;5012252;28;20034;-66
2023/08/17 02:17:16;;;;;;;9.55;8.30;;;24.40;74.50;;;;;;5010738;28;20053;-66
2023/08/17 02:19:43;;;;;;;9.68;8.77;;;24.40;74.70;;;;;;5008354;28;20030;-65
2023/08/17 02:22:09;;;;;;;11.57;9.57;;;24.40;74.50;;;;;;5016025;28;20033;-66
2023/08/17 02:24:34;;;;;;;9.98;8.98;;;24.40;74.70;;;;;;5005617;28;20026;-64
2023/08/17 02:27:00;;;;;;;10.60;9.60;;;24.40;74.50;;;;;;4983369;28;20084;-65
2023/08/17 02:29:25;;;;;;;11.30;10.20;;;24.40;74.40;;;;;;5007273;28;20143;-60
2023/08/17 02:31:51;;;;;;;9.05;8.25;;;24.40;74.30;;;;;;5005275;28;20122;-65
2023/08/17 02:34:16;;;;;;;10.95;8.82;;;24.40;74.40;;;;;;5009585;28;20080;-67
2023/08/17 02:36:42;;;;;;;10.93;8.50;;;24.30;74.40;;;;;;5008994;28;20033;-62
2023/08/17 02:39:07;;;;;;;10.48;9.23;;;24.40;74.40;;;;;;5013501;28;20057;-65
2023/08/17 02:41:33;;;;;;;10.98;9.88;;;24.40;74.20;;;;;;5009313;28;20030;-65
2023/08/17 02:43:58;;;;;;;10.60;9.65;;;24.40;74.10;;;;;;5010704;28;20520;-66
2023/08/17 02:46:24;;;;;;;9.68;8.70;;;24.40;74.10;;;;;;5008692;28;20030;-65
2023/08/17 02:48:50;;;;;;;9.27;8.38;;;24.40;74.00;;;;;;5006507;28;20038;-65
2023/08/17 02:51:16;;;;;;;9.70;8.80;;;24.30;73.80;;;;;;5013571;28;20501;-65
2023/08/17 02:53:41;;;;;;;9.85;8.85;;;24.30;73.60;;;;;;5011280;28;20084;-66
2023/08/17 02:56:07;;;;;;;13.32;10.00;;;24.30;73.80;;;;;;5009834;28;20242;-64
2023/08/17 02:58:32;;;;;;;12.10;10.80;;;24.20;74.10;;;;;;5009391;28;20121;-65
2023/08/17 03:00:57;;;;;;;13.63;9.43;;;24.20;74.20;;;;;;5007673;28;20492;-66
2023/08/17 03:03:23;;;;;;;10.38;9.32;;;24.20;74.40;;;;;;5012858;28;20037;-67
2023/08/17 03:05:48;;;;;;;10.40;9.40;;;24.20;74.40;;;;;;5011919;28;20081;-66
2023/08/17 03:08:14;;;;;;;12.60;11.23;;;24.20;74.40;;;;;;5014072;28;20041;-65
2023/08/17 03:10:39;;;;;;;11.52;10.43;;;24.20;74.50;;;;;;5016228;28;20535;-65
2023/08/17 03:13:05;;;;;;;11.63;10.32;;;24.20;74.40;;;;;;5014088;28;20040;-59
2023/08/17 03:15:30;;;;;;;13.38;12.05;;;24.20;74.50;;;;;;5016304;28;20500;-64
2023/08/17 03:17:56;;;;;;;15.40;13.82;;;24.20;74.50;;;;;;5008241;28;20057;-66
2023/08/17 03:20:21;;;;;;;13.50;12.20;;;24.10;74.80;;;;;;5013647;28;20030;-65
2023/08/17 03:22:47;;;;;;;12.32;11.13;;;24.10;75.10;;;;;;5010363;28;20030;-59
2023/08/17 03:25:12;;;;;;;13.02;11.38;;;24.10;75.10;;;;;;4990126;28;20041;-62
2023/08/17 03:27:38;;;;;;;11.73;10.63;;;24.20;74.90;;;;;;5008000;28;20022;-68
2023/08/17 03:30:05;;;;;;;12.25;10.63;;;24.20;74.80;;;;;;5009292;28;20484;-63
2023/08/17 03:32:30;;;;;;;13.48;12.07;;;24.20;74.90;;;;;;5008253;28;20045;-66
2023/08/17 03:34:56;;;;;;;11.20;10.15;;;24.10;75.00;;;;;;5012873;28;20563;-59
2023/08/17 03:37:21;;;;;;;10.50;9.40;;;24.10;75.10;;;;;;5012463;28;20045;-65
2023/08/17 03:39:47;;;;;;;10.88;9.75;;;24.10;75.10;;;;;;5013326;28;20025;-65
2023/08/17 03:42:12;;;;;;;11.02;9.80;;;24.10;75.10;;;;;;5017997;28;20030;-63
2023/08/17 03:44:38;;;;;;;11.05;8.93;;;24.10;75.10;;;;;;5009644;28;20034;-66
2023/08/17 03:47:04;;;;;;;10.93;9.25;;;24.10;75.10;;;;;;5010224;28;20100;-65
2023/08/17 03:49:29;;;;;;;7.82;7.03;;;24.10;74.60;;;;;;5012071;28;20037;-61
2023/08/17 03:51:55;;;;;;;7.95;7.05;;;24.00;74.30;;;;;;5009359;28;20051;-65
2023/08/17 03:54:20;;;;;;;6.97;6.28;;;23.90;74.70;;;;;;5007534;28;20106;-66
2023/08/17 03:56:46;;;;;;;6.97;6.30;;;23.90;74.70;;;;;;5008824;28;20068;-64
2023/08/17 03:59:11;;;;;;;6.90;6.20;;;23.90;74.70;;;;;;5009940;28;20691;-65
2023/08/17 04:01:37;;;;;;;5.50;5.00;;;24.00;74.50;;;;;;5005968;28;20056;-66
2023/08/17 04:04:02;;;;;;;5.68;4.60;;;24.00;74.40;;;;;;5011903;28;20081;-59
2023/08/17 04:06:28;;;;;;;6.97;5.18;;;23.90;74.20;;;;;;5013568;28;20040;-63
2023/08/17 04:08:53;;;;;;;5.13;3.90;;;24.00;74.40;;;;;;5011651;28;20508;-68
2023/08/17 04:11:19;;;;;;;5.07;3.95;;;24.00;74.30;;;;;;4983050;28;20121;-64
2023/08/17 04:13:44;;;;;;;3.95;3.25;;;23.90;74.30;;;;;;5011230;28;20038;-65
2023/08/17 04:16:10;;;;;;;3.72;3.42;;;23.90;74.60;;;;;;5014222;28;20048;-66
2023/08/17 04:18:35;;;;;;;4.40;3.97;;;23.90;74.20;;;;;;5010885;28;20418;-66
2023/08/17 04:21:01;;;;;;;3.53;2.95;;;23.80;74.30;;;;;;5008500;28;20034;-65
2023/08/17 04:23:26;;;;;;;5.03;3.50;;;23.80;74.50;;;;;;5008865;28;20030;-65
2023/08/17 04:25:55;;;;;;;6.10;4.10;;;23.90;74.30;;;;;;5006296;28;20026;-68
2023/08/17 04:28:20;;;;;;;4.63;3.30;;;23.80;74.30;;;;;;5008284;28;20046;-66
2023/08/17 04:30:46;;;;;;;3.58;3.28;;;23.90;74.40;;;;;;5005953;28;20037;-64
2023/08/17 04:33:12;;;;;;;3.40;2.97;;;23.80;74.50;;;;;;5010614;28;20357;-61
2023/08/17 04:35:38;;;;;;;4.05;2.92;;;23.90;74.40;;;;;;4976257;28;20042;-66
2023/08/17 04:38:04;;;;;;;3.65;3.35;;;23.90;74.20;;;;;;5014252;28;20034;-65
2023/08/17 04:40:30;;;;;;;4.50;3.25;;;23.90;74.10;;;;;;5011693;28;20422;-66
2023/08/17 04:42:55;;;;;;;3.30;3.00;;;23.90;74.20;;;;;;5009016;28;20041;-64
2023/08/17 04:45:21;;;;;;;3.03;2.63;;;24.00;74.20;;;;;;5008832;28;20442;-65
2023/08/17 04:47:46;;;;;;;4.22;3.00;;;23.90;74.10;;;;;;5009366;28;20033;-66
2023/08/17 04:50:16;;;;;;;3.17;2.50;;;23.90;74.00;;;;;;5009647;28;20057;-66
2023/08/17 04:52:44;;;;;;;3.42;2.53;;;24.00;74.20;;;;;;5005219;28;20053;-65
2023/08/17 04:55:11;;;;;;;4.38;2.90;;;23.90;74.00;;;;;;5005653;28;20026;-57
2023/08/17 04:57:36;;;;;;;3.58;3.28;;;23.90;74.10;;;;;;5006362;28;20043;-65
2023/08/17 05:00:03;;;;;;;3.55;2.65;;;23.90;74.00;;;;;;5006202;28;20034;-65
2023/08/17 05:02:28;;;;;;;4.82;2.97;;;24.00;74.10;;;;;;5007094;28;20030;-65
2023/08/17 05:04:54;;;;;;;3.60;3.17;;;24.00;74.10;;;;;;5009702;28;20551;-65
2023/08/17 05:07:19;;;;;;;3.85;3.45;;;24.00;74.00;;;;;;5010840;28;20041;-61
2023/08/17 05:09:45;;;;;;;4.88;4.20;;;23.90;74.00;;;;;;5013740;28;20056;-64
2023/08/17 05:12:11;;;;;;;8.48;4.35;;;23.80;74.40;;;;;;5008759;28;20041;-65
2023/08/17 05:14:36;;;;;;;4.63;4.05;;;23.80;74.40;;;;;;5012881;28;20041;-65
2023/08/17 05:17:02;;;;;;;4.55;4.05;;;23.80;74.30;;;;;;5012995;28;20044;-65
2023/08/17 05:19:27;;;;;;;4.22;3.80;;;23.80;74.30;;;;;;5011731;28;20048;-65
2023/08/17 05:21:53;;;;;;;4.60;4.07;;;23.80;74.40;;;;;;5003842;28;20027;-63
2023/08/17 05:24:20;;;;;;;4.25;3.85;;;23.80;75.10;;;;;;5006863;28;20053;-65
2023/08/17 05:26:45;;;;;;;4.15;3.75;;;23.70;75.30;;;;;;5004180;28;20025;-69
2023/08/17 05:29:11;;;;;;;8.73;4.13;;;23.70;76.40;;;;;;5003505;28;20092;-63
2023/08/17 05:31:37;;;;;;;6.72;4.47;;;23.80;78.60;;;;;;5005416;28;20099;-64
2023/08/17 05:34:02;;;;;;;4.45;3.55;;;23.80;77.00;;;;;;5006723;28;20504;-65
2023/08/17 05:36:28;;;;;;;4.68;3.60;;;23.70;76.00;;;;;;5008685;28;20467;-65
2023/08/17 05:38:53;;;;;;;3.83;3.35;;;23.70;75.70;;;;;;5008925;28;20064;-64
2023/08/17 05:41:19;;;;;;;3.22;2.95;;;23.70;75.50;;;;;;5005456;28;20041;-65
2023/08/17 05:43:44;;;;;;;3.97;3.25;;;23.80;75.90;;;;;;5002988;28;20029;-68
2023/08/17 05:46:10;;;;;;;2.85;2.65;;;23.80;75.80;;;;;;5009515;28;20026;-59
2023/08/17 05:48:35;;;;;;;4.47;3.72;;;23.80;75.70;;;;;;4980119;28;20026;-66
2023/08/17 05:51:01;;;;;;;5.00;3.72;;;23.80;75.30;;;;;;4983536;28;20030;-63
2023/08/17 05:53:26;;;;;;;5.07;3.22;;;23.80;75.60;;;;;;5006769;28;20048;-67
2023/08/17 05:55:52;;;;;;;4.90;3.15;;;23.70;74.80;;;;;;5003012;28;20424;-63
2023/08/17 05:58:17;;;;;;;6.30;3.80;;;23.80;75.30;;;;;;5007506;28;20045;-67
2023/08/17 06:00:43;;;;;;;5.60;2.72;;;23.80;75.50;;;;;;4984029;28;20033;-62
2023/08/17 06:03:09;;;;;;;2.88;2.50;;;23.90;75.40;;;;;;5005302;28;20025;-62
2023/08/17 06:05:34;;;;;;;4.40;2.63;;;23.90;75.30;;;;;;5005255;28;20335;-57
2023/08/17 06:08:00;;;;;;;3.47;2.55;;;23.90;75.00;;;;;;5009149;28;20042;-65
2023/08/17 06:10:26;;;;;;;2.75;2.28;;;23.80;74.70;;;;;;5005747;28;20497;-64
2023/08/17 06:12:55;;;;;;;3.72;2.15;;;23.90;74.90;;;;;;5005549;28;20494;-67
2023/08/17 06:15:21;;;;;;;5.50;2.95;;;23.90;75.10;;;;;;5010215;28;20039;-66
2023/08/17 06:17:49;;;;;;;5.53;3.35;;;23.90;75.20;;;;;;4990874;28;20045;-63
2023/08/17 06:20:16;;;;;;;4.88;2.80;;;23.90;75.00;;;;;;5001348;28;20049;-57
2023/08/17 06:22:41;;;;;;;4.15;3.45;;;23.90;75.00;;;;;;4999802;28;20025;-69
2023/08/17 06:25:08;;;;;;;7.03;3.58;;;23.90;75.10;;;;;;5004731;28;20246;-66
2023/08/17 06:27:37;;;;;;;4.20;2.78;;;23.90;75.10;;;;;;5007335;28;20030;-65
2023/08/17 06:30:03;;;;;;;5.75;3.47;;;23.90;75.00;;;;;;4990963;28;20075;-66
2023/08/17 06:32:30;;;;;;;8.35;4.22;;;23.80;74.80;;;;;;5013991;28;20049;-63
2023/08/17 06:34:55;;;;;;;3.92;3.40;;;23.70;75.00;;;;;;5015928;28;20038;-65
2023/08/17 06:37:21;;;;;;;6.88;4.55;;;23.80;75.30;;;;;;5012915;28;20053;-66
2023/08/17 06:39:46;;;;;;;5.03;3.28;;;23.70;75.10;;;;;;5011354;28;20030;-67
2023/08/17 06:42:12;;;;;;;10.25;3.78;;;23.70;75.50;;;;;;5003836;28;20117;-64
2023/08/17 06:44:37;;;;;;;5.85;3.40;;;23.70;75.80;;;;;;5012170;28;20576;-65
2023/08/17 06:47:03;;;;;;;5.65;3.15;;;23.70;75.50;;;;;;5006281;28;20076;-66
2023/08/17 06:49:28;;;;;;;4.82;4.43;;;23.80;75.70;;;;;;5006847;28;20588;-64
2023/08/17 06:51:54;;;;;;;8.02;5.07;;;23.70;75.40;;;;;;5005693;28;20034;-66
2023/08/17 06:54:19;;;;;;;10.15;4.40;;;23.80;75.70;;;;;;5007633;28;20038;-63
2023/08/17 06:56:45;;;;;;;8.20;3.72;;;23.80;75.30;;;;;;4999129;28;20733;-66
2023/08/17 06:59:11;;;;;;;4.18;3.65;;;23.90;75.10;;;;;;5006022;28;20105;-66
2023/08/17 07:01:36;;;;;;;5.15;3.47;;;23.90;74.90;;;;;;5007529;28;20374;-67
2023/08/17 07:04:02;;;;;;;5.38;4.00;;;23.90;74.80;;;;;;5009207;28;20886;-65
2023/08/17 07:06:28;;;;;;;6.78;3.72;;;23.90;75.00;;;;;;4998567;28;20551;-66
2023/08/17 07:08:54;;;;;;;9.15;3.97;;;24.00;74.70;;;;;;5003697;28;20324;-65
2023/08/17 07:11:20;;;;;;;6.43;3.63;;;24.00;74.40;;;;;;5013961;28;20300;-64
2023/08/17 07:13:45;;;;;;;7.90;4.30;;;24.00;74.30;;;;;;5003633;28;20048;-65
2023/08/17 07:16:11;;;;;;;5.63;4.22;;;24.00;74.20;;;;;;5003478;28;20144;-65
2023/08/17 07:18:37;;;;;;;7.00;4.18;;;24.00;74.20;;;;;;5002436;28;20472;-63
2023/08/17 07:21:02;;;;;;;5.25;4.47;;;24.00;74.10;;;;;;5003231;28;20124;-63
2023/08/17 07:23:28;;;;;;;6.63;4.32;;;24.10;74.10;;;;;;5005338;28;20108;-64
2023/08/17 07:25:53;;;;;;;4.55;3.92;;;24.10;74.10;;;;;;5005982;28;20105;-69
2023/08/17 07:28:19;;;;;;;4.75;4.30;;;24.10;74.10;;;;;;5007392;28;20256;-64
2023/08/17 07:30:44;;;;;;;6.15;4.05;;;24.10;74.00;;;;;;5007628;28;20120;-66
2023/08/17 07:33:10;;;;;;;4.47;4.03;;;24.10;73.90;;;;;;5008001;28;20050;-65
2023/08/17 07:35:36;;;;;;;4.22;3.83;;;24.10;74.10;;;;;;5009259;28;20036;-68
2023/08/17 07:38:01;;;;;;;4.53;4.10;;;24.10;73.90;;;;;;5009679;28;20224;-63
2023/08/17 07:40:27;;;;;;;6.18;5.03;;;24.10;73.90;;;;;;5001601;28;20037;-65
2023/08/17 07:42:52;;;;;;;4.82;4.43;;;24.10;74.00;;;;;;5008284;28;20044;-63
2023/08/17 07:45:18;;;;;;;6.50;4.35;;;24.10;73.90;;;;;;5007765;28;20026;-65
2023/08/17 07:47:43;;;;;;;5.13;4.63;;;24.20;74.10;;;;;;5002860;28;20029;-65
2023/08/17 07:50:09;;;;;;;5.50;5.00;;;24.20;73.90;;;;;;5005256;28;20034;-65
2023/08/17 07:52:35;;;;;;;5.88;4.43;;;24.20;74.00;;;;;;5007627;28;20041;-65
2023/08/17 07:55:00;;;;;;;5.57;4.50;;;24.20;74.00;;;;;;5005839;28;20575;-66
2023/08/17 07:57:26;;;;;;;5.18;4.53;;;24.20;73.90;;;;;;5008982;28;20030;-65
2023/08/17 07:59:53;;;;;;;5.82;4.57;;;24.20;73.90;;;;;;5004710;28;20033;-64
2023/08/17 08:02:19;;;;;;;5.43;4.90;;;24.20;73.90;;;;;;5006598;28;20105;-66
2023/08/17 08:04:44;;;;;;;5.50;4.63;;;24.20;74.00;;;;;;5006874;28;20098;-65
2023/08/17 08:07:10;;;;;;;6.13;5.53;;;24.20;73.90;;;;;;5009085;28;20041;-62
2023/08/17 08:09:36;;;;;;;8.02;5.53;;;24.20;73.80;;;;;;5002663;28;20065;-65
2023/08/17 08:12:02;;;;;;;5.97;5.38;;;24.20;74.10;;;;;;5009998;28;20042;-65
2023/08/17 08:14:28;;;;;;;6.82;5.35;;;24.20;74.10;;;;;;5010977;28;20026;-64
2023/08/17 08:16:53;;;;;;;7.35;5.28;;;24.20;74.10;;;;;;4998870;28;20033;-66
2023/08/17 08:19:19;;;;;;;6.68;5.60;;;24.20;73.80;;;;;;5004070;28;20026;-64
2023/08/17 08:21:44;;;;;;;6.63;5.93;;;24.20;73.90;;;;;;5003410;28;20025;-66
2023/08/17 08:24:09;;;;;;;6.85;5.90;;;24.20;73.90;;;;;;5005202;28;20046;-65
2023/08/17 08:26:35;;;;;;;7.35;6.65;;;24.20;74.00;;;;;;5003996;28;20370;-67
2023/08/17 08:29:01;;;;;;;7.80;7.10;;;24.20;74.10;;;;;;5005358;28;20519;-66
2023/08/17 08:31:26;;;;;;;7.10;6.13;;;24.30;74.20;;;;;;5005661;28;20026;-64
2023/08/17 08:33:52;;;;;;;7.80;7.10;;;24.30;74.20;;;;;;5004463;28;20042;-66
2023/08/17 08:36:18;;;;;;;7.65;6.85;;;24.30;74.30;;;;;;5007562;28;20034;-65
2023/08/17 08:38:44;;;;;;;9.23;8.35;;;24.30;74.30;;;;;;5007526;28;20449;-65
2023/08/17 08:41:11;;;;;;;8.75;7.85;;;24.30;75.40;;;;;;5001608;28;20038;-66
2023/08/17 08:43:38;;;;;;;8.85;7.95;;;24.30;74.50;;;;;;5004995;28;20030;-64
2023/08/17 08:46:04;;;;;;;9.63;8.07;;;24.30;74.60;;;;;;4999756;28;20524;-62
2023/08/17 08:48:31;;;;;;;9.02;8.18;;;24.30;74.50;;;;;;5003049;28;20060;-66
2023/08/17 08:51:00;;;;;;;9.35;8.10;;;24.30;74.50;;;;;;5003620;28;20431;-66
2023/08/17 08:53:36;;;;;;;8.40;7.57;;;24.30;74.40;;;;;;5004573;28;20041;-66
2023/08/17 08:56:04;;;;;;;8.88;8.00;;;24.30;74.40;;;;;;5000143;28;20212;-64
2023/08/17 08:58:32;;;;;;;9.27;8.38;;;24.30;74.30;;;;;;5005507;28;20053;-65
2023/08/17 09:01:00;;;;;;;10.45;9.38;;;24.30;74.30;;;;;;5005228;28;20133;-65
2023/08/17 09:03:26;;;;;;;9.27;8.45;;;24.30;74.70;;;;;;5007835;28;20069;-65
2023/08/17 09:05:52;;;;;;;10.13;9.13;;;24.30;74.70;;;;;;5003025;28;20490;-63
2023/08/17 09:08:23;;;;;;;10.68;9.57;;;24.30;74.50;;;;;;5009780;28;20033;-65
2023/08/17 09:10:49;;;;;;;9.80;8.80;;;24.30;74.70;;;;;;5001533;28;20390;-65
2023/08/17 09:13:15;;;;;;;11.18;10.07;;;24.30;74.70;;;;;;5000519;28;20099;-66
2023/08/17 09:15:41;;;;;;;12.10;10.90;;;24.30;74.30;;;;;;5004015;28;20026;-64
2023/08/17 09:18:07;;;;;;;11.32;10.20;;;24.30;75.30;;;;;;5004121;28;20321;-66
2023/08/17 09:20:38;;;;;;;11.18;10.18;;;24.20;74.80;;;;;;5002845;28;20037;-65
2023/08/17 09:23:04;;;;;;;10.85;9.75;;;24.30;74.90;;;;;;5002193;28;20049;-65
2023/08/17 09:25:31;;;;;;;13.50;12.07;;;24.30;74.70;;;;;;5002409;28;20034;-65
2023/08/17 09:27:57;;;;;;;12.30;11.02;;;24.30;75.30;;;;;;5004368;28;20033;-66
2023/08/17 09:30:23;;;;;;;14.05;12.55;;;24.30;75.00;;;;;;4990398;28;20038;-64
2023/08/17 09:32:49;;;;;;;12.55;11.25;;;24.30;75.70;;;;;;5005343;28;20038;-65
2023/08/17 09:35:15;;;;;;;13.82;12.48;;;24.30;75.20;;;;;;5007877;28;20030;-64
2023/08/17 09:37:40;;;;;;;13.25;11.93;;;24.30;75.10;;;;;;5010496;28;20049;-62
2023/08/17 09:40:06;;;;;;;16.05;14.35;;;24.30;75.00;;;;;;5002771;28;20148;-66
2023/08/17 09:42:35;;;;;;;16.58;14.82;;;24.30;75.60;;;;;;5008462;28;20065;-66
2023/08/17 09:45:02;;;;;;;12.07;10.98;;;24.30;75.60;;;;;;5001379;28;20375;-65
2023/08/17 09:47:29;;;;;;;14.48;13.07;;;24.30;75.00;;;;;;5002312;28;20030;-65
2023/08/17 09:49:54;;;;;;;13.23;11.88;;;24.40;75.30;;;;;;5005337;28;20675;-66
2023/08/17 09:52:22;;;;;;;13.02;11.82;;;24.30;74.80;;;;;;5003017;28;20129;-64
2023/08/17 09:54:47;;;;;;;13.10;11.90;;;24.40;74.70;;;;;;5000620;28;20030;-66
2023/08/17 09:57:14;;;;;;;13.50;12.15;;;24.40;74.50;;;;;;5003991;28;20378;-65
2023/08/17 09:59:39;;;;;;;13.27;11.98;;;24.40;74.50;;;;;;5003254;28;20030;-65
2023/08/17 10:02:18;;;;;;;15.93;14.27;;;24.40;74.50;;;;;;5011033;28;20044;-65
2023/08/17 10:04:49;;;;;;;14.15;12.68;;;24.40;74.60;;;;;;5009530;28;20034;-65
2023/08/17 10:07:16;;;;;;;13.98;12.63;;;24.40;74.40;;;;;;5012574;28;20022;-66
2023/08/17 10:09:45;;;;;;;15.70;12.82;;;24.40;74.30;;;;;;5009441;28;20041;-65
2023/08/17 10:12:15;;;;;;;14.15;12.60;;;24.40;74.30;;;;;;5009221;28;20251;-67
2023/08/17 10:14:49;;;;;;;16.48;12.65;;;24.40;74.20;;;;;;5005150;28;20480;-64
2023/08/17 10:17:30;;;;;;;13.68;12.38;;;24.40;74.10;;;;;;5005140;28;20088;-67
2023/08/17 10:19:59;;;;;;;14.27;12.80;;;24.40;74.00;;;;;;5000339;28;20038;-65
2023/08/17 10:22:47;;;;;;;14.25;12.95;;;24.40;73.80;;;;;;5005586;28;20080;-66
2023/08/17 10:25:13;;;;;;;13.73;12.52;;;24.50;73.80;;;;;;5004794;28;20041;-64
2023/08/17 10:27:41;;;;;;;14.13;12.80;;;24.40;73.70;;;;;;5010219;28;20026;-67
2023/08/17 10:30:08;;;;;;;14.43;13.00;;;24.50;73.70;;;;;;5011484;28;20042;-66
2023/08/17 10:32:35;;;;;;;14.20;12.88;;;24.50;74.30;;;;;;5005824;28;20056;-64
2023/08/17 10:35:02;;;;;;;15.57;14.15;;;24.50;73.70;;;;;;5007860;28;20480;-65
2023/08/17 10:37:28;;;;;;;14.32;13.05;;;24.50;73.80;;;;;;5013192;28;20065;-65
2023/08/17 10:39:54;;;;;;;14.90;13.50;;;24.50;73.80;;;;;;4984025;28;20037;-67
2023/08/17 10:42:40;;;;;;;13.93;12.73;;;24.50;73.70;;;;;;5004471;28;20034;-65
2023/08/17 10:45:24;;;;;;;;;;;24.50;73.70;;;;;;4988814;28;20051;-63
2023/08/17 10:47:49;;;;;;;14.48;13.15;;;24.50;73.60;;;;;;5004011;28;20052;-65
2023/08/17 10:50:23;;;;;;;15.38;13.80;;;24.50;73.60;;;;;;5004491;28;20589;-66
2023/08/17 10:52:50;;;;;;;15.50;14.10;;;24.50;73.60;;;;;;5000974;28;20049;-65
2023/08/17 10:55:16;;;;;;;15.60;14.20;;;24.50;73.90;;;;;;5005402;28;20501;-66
2023/08/17 10:57:43;;;;;;;15.13;13.65;;;24.50;73.70;;;;;;5004289;28;20062;-66
2023/08/17 11:00:26;;;;;;;15.68;14.07;;;24.50;73.60;;;;;;5008446;28;20587;-66
2023/08/17 11:02:58;;;;;;;16.00;14.30;;;24.60;73.50;;;;;;5013529;28;20033;-65
2023/08/17 11:05:53;;;;;;;16.95;15.05;;;24.60;73.50;;;;;;5011455;28;20527;-65
2023/08/17 11:08:33;;;;;;;14.95;13.52;;;24.60;73.30;;;;;;5012268;28;20069;-64
2023/08/17 11:11:09;;;;;;;16.83;15.23;;;24.60;73.40;;;;;;5004378;28;20504;-65
2023/08/17 11:13:40;;;;;;;17.50;15.60;;;24.60;73.50;;;;;;5003236;28;20076;-66
2023/08/17 11:16:07;;;;;;;18.20;16.50;;;24.60;73.50;;;;;;5005544;28;20098;-65
2023/08/17 11:18:33;;;;;;;18.25;16.52;;;24.60;73.70;;;;;;5006171;28;20045;-65
2023/08/17 11:21:00;;;;;;;18.50;16.60;;;24.60;74.10;;;;;;5003423;28;20101;-66
2023/08/17 11:23:29;;;;;;;17.60;16.10;;;24.60;73.90;;;;;;5007017;28;20091;-64
2023/08/17 11:25:55;;;;;;;16.90;15.30;;;24.60;74.10;;;;;;5007605;28;20027;-65
2023/08/17 11:28:22;;;;;;;17.42;15.30;;;24.70;74.10;;;;;;5010884;28;20045;-66
2023/08/17 11:30:57;;;;;;;17.40;15.70;;;24.70;74.10;;;;;;5006193;28;20046;-65
2023/08/17 11:33:23;;;;;;;17.00;15.30;;;24.70;73.90;;;;;;4996119;28;20041;-66
2023/08/17 11:35:50;;;;;;;17.23;15.48;;;24.70;73.80;;;;;;5014310;28;20044;-65
2023/08/17 11:38:15;;;;;;;16.90;15.05;;;24.70;73.80;;;;;;5004052;28;20026;-66
2023/08/17 11:40:41;;;;;;;18.27;16.48;;;24.70;73.80;;;;;;5006395;28;20026;-66
2023/08/17 11:43:06;;;;;;;17.42;15.73;;;24.70;74.00;;;;;;5004822;28;20513;-65
2023/08/17 11:45:32;;;;;;;17.25;15.70;;;24.70;74.40;;;;;;5003396;28;20091;-66
2023/08/17 11:47:58;;;;;;;18.48;16.13;;;24.70;74.50;;;;;;5004834;28;20038;-63
2023/08/17 11:50:24;;;;;;;17.38;15.65;;;24.70;74.20;;;;;;5003868;28;20037;-66
2023/08/17 11:52:50;;;;;;;19.85;15.43;;;24.70;74.40;;;;;;5004147;28;20575;-67
2023/08/17 11:55:20;;;;;;;17.63;15.85;;;24.70;74.40;;;;;;5005195;28;20042;-66
2023/08/17 11:57:46;;;;;;;17.75;16.02;;;24.70;74.30;;;;;;5005397;28;20029;-67
2023/08/17 12:00:18;;;;;;;19.27;17.38;;;24.70;74.10;;;;;;5006164;28;20516;-67
2023/08/17 12:02:49;;;;;;;19.10;17.30;;;24.80;74.80;;;;;;5009689;28;20370;-66
2023/08/17 12:05:23;;;;;;;17.85;16.05;;;24.80;74.90;;;;;;5011861;28;20045;-66
2023/08/17 12:07:53;;;;;;;19.33;17.42;;;24.80;75.00;;;;;;5009026;28;20034;-66
2023/08/17 12:10:19;;;;;;;18.80;16.90;;;24.80;75.00;;;;;;5009018;28;20053;-66
2023/08/17 12:12:47;;;;;;;19.33;17.42;;;24.80;74.80;;;;;;5003060;28;20233;-67
2023/08/17 12:15:14;;;;;;;18.50;16.67;;;24.80;74.90;;;;;;5006010;28;20041;-67
2023/08/17 12:17:46;;;;;;;19.83;16.95;;;24.90;75.30;;;;;;5010312;28;20030;-67
2023/08/17 12:20:20;;;;;;;19.13;17.33;;;24.90;75.10;;;;;;5005031;28;20102;-67
2023/08/17 12:22:48;;;;;;;18.08;16.38;;;24.90;75.30;;;;;;5002072;28;20029;-67
2023/08/17 12:25:14;;;;;;;18.58;16.65;;;24.90;74.90;;;;;;5004892;28;20512;-67
2023/08/17 12:27:40;;;;;;;17.63;15.80;;;24.90;74.90;;;;;;5007994;28;20033;-67
2023/08/17 12:30:14;;;;;;;18.65;16.83;;;24.90;74.70;;;;;;5003521;28;20026;-67
2023/08/17 12:32:39;;;;;;;17.83;16.23;;;24.90;74.70;;;;;;5007079;28;20042;-65
2023/08/17 12:35:05;;;;;;;18.17;16.20;;;24.90;74.60;;;;;;5005212;28;21406;-67
2023/08/17 12:37:30;;;;;;;18.45;16.52;;;24.90;74.60;;;;;;5002546;28;20501;-66